Time;durP1;ratioP1;P1;durP2;ratioP2;P2;SDS_P1;SDS_P2;PMS_P1;PMS_P2;Temp;Humidity;BMP_temperature;BMP_pressure;BME280_temperature;BME280_humidity;BME280_pressure;Samples;Min_cycle;Max_cycle;Signal;HPM_P1;HPM_P2
2023/02/19 00:01:46;;;;;;;4.60;4.17;;;7.10;99.90;;;;;;5045035;28;20203;-73
2023/02/19 00:04:18;;;;;;;6.43;4.37;;;7.10;99.90;;;;;;5045616;28;20677;-73
2023/02/19 00:06:47;;;;;;;6.00;4.57;;;7.10;99.90;;;;;;5058820;28;21300;-73
2023/02/19 00:09:18;;;;;;;6.10;4.23;;;7.10;99.90;;;;;;5044660;28;20241;-73
2023/02/19 00:11:46;;;;;;;4.63;4.23;;;7.20;99.90;;;;;;5043075;28;20995;-73
2023/02/19 00:14:20;;;;;;;6.93;4.20;;;7.20;99.90;;;;;;5041427;28;20246;-73
2023/02/19 00:16:47;;;;;;;5.23;4.37;;;7.20;99.90;;;;;;5040039;28;20231;-73
2023/02/19 00:19:18;;;;;;;4.97;4.47;;;7.20;99.90;;;;;;5042608;28;20191;-73
2023/02/19 00:21:44;;;;;;;11.03;4.60;;;7.20;99.90;;;;;;5046196;28;20863;-73
2023/02/19 00:24:13;;;;;;;5.17;4.67;;;7.30;99.90;;;;;;5043545;28;20183;-73
2023/02/19 00:26:44;;;;;;;5.20;4.70;;;7.30;99.90;;;;;;5040158;28;20222;-73
2023/02/19 00:29:18;;;;;;;5.73;4.27;;;7.30;99.90;;;;;;5053431;28;20199;-73
2023/02/19 00:31:46;;;;;;;5.20;4.10;;;7.30;99.90;;;;;;5054278;28;20720;-73
2023/02/19 00:34:14;;;;;;;6.60;4.53;;;7.40;99.90;;;;;;5057642;28;20722;-73
2023/02/19 00:36:41;;;;;;;5.83;4.83;;;7.40;99.90;;;;;;5042313;28;20641;-73
2023/02/19 00:39:12;;;;;;;5.10;4.60;;;7.40;99.90;;;;;;5060073;28;20275;-73
2023/02/19 00:41:39;;;;;;;5.03;4.47;;;7.40;99.90;;;;;;5056224;28;20188;-73
2023/02/19 00:44:09;;;;;;;6.30;4.60;;;7.40;99.90;;;;;;5056375;28;20290;-73
2023/02/19 00:46:39;;;;;;;5.70;4.20;;;7.50;99.90;;;;;;5040684;28;20206;-73
2023/02/19 00:49:08;;;;;;;5.00;4.20;;;7.50;99.90;;;;;;5037842;28;20182;-73
2023/02/19 00:51:37;;;;;;;4.63;4.07;;;7.50;99.90;;;;;;5057193;28;20170;-73
2023/02/19 00:54:05;;;;;;;5.40;4.63;;;7.50;99.90;;;;;;5046136;28;20565;-73
2023/02/19 00:56:33;;;;;;;6.30;4.47;;;7.60;99.90;;;;;;5061359;28;20191;-73
2023/02/19 00:59:02;;;;;;;7.40;5.10;;;7.60;99.90;;;;;;5057533;28;20860;-73
2023/02/19 01:01:28;;;;;;;5.23;4.60;;;7.60;99.90;;;;;;5059951;28;20202;-73
2023/02/19 01:03:55;;;;;;;6.47;4.67;;;7.60;99.90;;;;;;5043695;28;20904;-73
2023/02/19 01:06:22;;;;;;;6.63;4.80;;;7.70;99.90;;;;;;5045392;28;20212;-73
2023/02/19 01:08:49;;;;;;;9.23;5.00;;;7.70;99.90;;;;;;5061467;28;20200;-73
2023/02/19 01:11:17;;;;;;;6.03;4.70;;;7.70;99.90;;;;;;5024800;28;20215;-73
2023/02/19 01:13:44;;;;;;;5.40;4.57;;;7.70;99.90;;;;;;5043796;28;20860;-73
2023/02/19 01:16:21;;;;;;;5.33;4.60;;;7.70;99.90;;;;;;5040358;28;20188;-73
2023/02/19 01:18:47;;;;;;;5.00;4.20;;;7.70;99.90;;;;;;5073045;28;20278;-73
2023/02/19 01:21:25;;;;;;;5.70;4.27;;;7.70;99.90;;;;;;5040981;28;20207;-73
2023/02/19 01:23:53;;;;;;;5.23;4.47;;;7.70;99.90;;;;;;5056975;28;20191;-73
2023/02/19 01:26:27;;;;;;;4.93;3.83;;;7.60;99.90;;;;;;5037894;28;20223;-73
2023/02/19 01:28:54;;;;;;;6.57;3.90;;;7.60;99.90;;;;;;5056449;28;20283;-73
2023/02/19 01:31:24;;;;;;;4.87;3.97;;;7.50;99.90;;;;;;5042103;28;20289;-73
2023/02/19 01:33:55;;;;;;;4.73;4.17;;;7.50;99.90;;;;;;5039812;28;20657;-73
2023/02/19 01:36:22;;;;;;;4.57;4.17;;;7.50;99.90;;;;;;5061013;28;20186;-73
2023/02/19 01:38:49;;;;;;;4.80;3.90;;;7.50;99.90;;;;;;5040483;28;20211;-73
2023/02/19 01:41:20;;;;;;;5.00;4.20;;;7.50;99.90;;;;;;5041189;28;21020;-73
2023/02/19 01:44:26;;;;;;;6.03;4.20;;;7.50;99.90;;;;;;5039293;28;20226;-73
2023/02/19 01:46:56;;;;;;;5.33;3.80;;;7.50;99.90;;;;;;5042205;28;20867;-73
2023/02/19 01:49:51;;;;;;;5.40;4.30;;;7.50;99.90;;;;;;5034239;28;20187;-73
2023/02/19 01:52:35;;;;;;;4.30;3.70;;;7.50;99.90;;;;;;5042627;28;20592;-73
2023/02/19 01:55:06;;;;;;;5.10;4.40;;;7.50;99.90;;;;;;5044495;28;20294;-73
2023/02/19 01:57:43;;;;;;;5.53;4.20;;;7.50;99.90;;;;;;5040785;28;20759;-73
2023/02/19 02:00:14;;;;;;;4.77;4.10;;;7.50;99.90;;;;;;5040461;28;20334;-73
2023/02/19 02:02:45;;;;;;;4.43;3.90;;;7.50;99.90;;;;;;5040329;28;20657;-73
2023/02/19 02:05:58;;;;;;;5.57;3.90;;;7.50;99.90;;;;;;5044566;28;20976;-73
2023/02/19 02:11:12;;;;;;;6.70;3.90;;;7.50;99.90;;;;;;5037071;28;20211;-73
2023/02/19 02:13:39;;;;;;;4.60;4.20;;;7.50;99.90;;;;;;5040964;28;20195;-73
2023/02/19 02:16:21;;;;;;;5.20;3.87;;;7.60;99.90;;;;;;5040433;28;20252;-73
2023/02/19 02:19:42;;;;;;;4.53;4.00;;;7.60;99.90;;;;;;5036153;28;20917;-73
2023/02/19 02:22:36;;;;;;;6.60;3.90;;;7.70;99.90;;;;;;5025600;28;20207;-73
2023/02/19 02:25:42;;;;;;;5.57;3.93;;;7.70;99.90;;;;;;5039148;28;20196;-73
2023/02/19 02:29:00;;;;;;;6.90;4.00;;;7.80;99.90;;;;;;5044460;28;20680;-73
2023/02/19 02:32:09;;;;;;;7.63;3.93;;;7.80;99.90;;;;;;5039892;28;20313;-73
2023/02/19 02:35:06;;;;;;;4.47;3.90;;;7.90;99.90;;;;;;5040135;28;22534;-73
2023/02/19 02:37:37;;;;;;;6.63;4.57;;;8.00;99.90;;;;;;5037210;28;20230;-73
2023/02/19 02:40:07;;;;;;;5.67;4.83;;;8.00;99.90;;;;;;5037583;28;20183;-73
2023/02/19 02:42:38;;;;;;;5.00;4.40;;;8.00;99.90;;;;;;5041060;28;20241;-73
2023/02/19 02:45:34;;;;;;;5.77;4.13;;;8.00;99.90;;;;;;5041247;28;20195;-73
2023/02/19 02:48:37;;;;;;;4.23;3.83;;;8.10;99.90;;;;;;5055857;28;20191;-73
2023/02/19 02:51:34;;;;;;;4.63;3.90;;;8.10;99.90;;;;;;5038972;28;20671;-73
2023/02/19 02:57:03;;;;;;;6.70;4.27;;;8.10;99.90;;;;;;5036972;28;20188;-70
2023/02/19 02:59:38;;;;;;;4.67;4.20;;;8.20;99.90;;;;;;5050333;28;20192;-70
2023/02/19 03:02:10;;;;;;;5.07;4.30;;;8.10;99.90;;;;;;5040937;28;20187;-73
2023/02/19 03:08:09;;;;;;;6.43;4.30;;;8.00;99.90;;;;;;5042706;28;20187;-73
2023/02/19 03:10:55;;;;;;;5.97;4.30;;;7.60;99.90;;;;;;5061874;28;20959;-73
2023/02/19 03:19:19;;;;;;;4.40;3.53;;;7.00;99.90;;;;;;5042260;28;20258;-73
2023/02/19 03:22:18;;;;;;;6.20;3.63;;;6.80;99.90;;;;;;5040797;28;20187;-73
2023/02/19 03:27:50;;;;;;;6.30;3.80;;;6.70;99.90;;;;;;5039529;28;20183;-73
2023/02/19 03:30:26;;;;;;;4.60;3.63;;;6.60;99.90;;;;;;5041794;28;20218;-73
2023/02/19 03:33:07;;;;;;;6.30;4.30;;;6.50;99.90;;;;;;5047959;28;20207;-73
2023/02/19 03:36:04;;;;;;;4.67;3.80;;;6.50;99.90;;;;;;5044792;28;20219;-73
2023/02/19 03:38:51;;;;;;;5.37;4.20;;;6.40;99.90;;;;;;5063502;28;20808;-73
2023/02/19 03:41:57;;;;;;;6.40;4.30;;;6.40;99.90;;;;;;5042888;28;20191;-73
2023/02/19 03:44:45;;;;;;;5.40;3.83;;;6.20;99.90;;;;;;5063373;28;20619;-73
2023/02/19 03:47:34;;;;;;;5.37;3.80;;;6.20;99.90;;;;;;5040626;28;20195;-73
2023/02/19 03:50:39;;;;;;;4.67;4.17;;;6.20;99.90;;;;;;5044305;28;21292;-73
2023/02/19 03:53:48;;;;;;;7.50;4.13;;;6.20;99.90;;;;;;5040288;28;20210;-73
2023/02/19 03:56:48;;;;;;;5.20;4.50;;;6.30;99.90;;;;;;5057429;28;20708;-73
2023/02/19 03:59:48;;;;;;;5.87;4.73;;;6.40;99.90;;;;;;5046175;28;20196;-73
2023/02/19 04:02:45;;;;;;;5.97;4.63;;;6.40;99.90;;;;;;5041286;28;20764;-73
2023/02/19 04:05:21;;;;;;;6.77;4.77;;;6.40;99.90;;;;;;5040867;28;20203;-73
2023/02/19 04:07:53;;;;;;;6.30;5.20;;;6.40;99.90;;;;;;5039837;28;20221;-73
2023/02/19 04:10:21;;;;;;;5.80;5.17;;;6.40;99.90;;;;;;5058233;28;20218;-73
2023/02/19 04:13:02;;;;;;;5.23;4.70;;;6.50;99.90;;;;;;5041951;28;20188;-73
2023/02/19 04:15:33;;;;;;;6.07;5.47;;;6.50;99.90;;;;;;5037866;28;20187;-73
2023/02/19 04:18:30;;;;;;;6.40;5.30;;;6.70;99.90;;;;;;5044046;28;20710;-73
2023/02/19 04:20:59;;;;;;;7.13;4.77;;;6.70;99.90;;;;;;5040229;28;20196;-73
2023/02/19 04:23:31;;;;;;;7.30;5.30;;;6.60;99.90;;;;;;5042509;28;20187;-73
2023/02/19 04:26:03;;;;;;;8.03;5.97;;;6.60;99.90;;;;;;5043332;28;20207;-73
2023/02/19 04:28:30;;;;;;;7.87;5.60;;;6.70;99.90;;;;;;5040418;28;20313;-73
2023/02/19 04:30:56;;;;;;;8.67;5.70;;;6.80;99.90;;;;;;5037574;28;20219;-73
2023/02/19 04:33:23;;;;;;;7.03;5.70;;;6.70;99.90;;;;;;5041172;28;20219;-73
2023/02/19 04:35:49;;;;;;;6.87;5.53;;;6.80;99.90;;;;;;5040365;28;20188;-73
2023/02/19 04:38:15;;;;;;;7.97;5.93;;;6.80;99.90;;;;;;5041515;28;20198;-73
2023/02/19 04:40:42;;;;;;;7.40;5.83;;;6.90;99.90;;;;;;5045308;28;20196;-73
2023/02/19 04:43:08;;;;;;;7.60;5.83;;;7.00;99.90;;;;;;5046887;28;20211;-73
2023/02/19 04:45:37;;;;;;;7.97;6.17;;;7.00;99.90;;;;;;5042670;28;20215;-73
2023/02/19 04:48:04;;;;;;;6.60;5.93;;;7.00;99.90;;;;;;5041199;28;20197;-73
2023/02/19 04:50:30;;;;;;;7.70;6.43;;;7.10;99.90;;;;;;5045259;28;20651;-73
2023/02/19 04:52:57;;;;;;;6.60;5.63;;;7.10;99.90;;;;;;5045586;28;20203;-73
2023/02/19 04:55:23;;;;;;;6.80;5.73;;;7.00;99.90;;;;;;5043329;28;20241;-73
2023/02/19 04:57:49;;;;;;;9.33;6.30;;;7.00;99.90;;;;;;5044123;28;20850;-73
2023/02/19 05:00:15;;;;;;;8.70;6.93;;;7.00;99.90;;;;;;5043822;28;20187;-73
2023/02/19 05:02:41;;;;;;;6.93;6.23;;;7.00;99.90;;;;;;5035928;28;20274;-73
2023/02/19 05:05:08;;;;;;;7.23;6.20;;;7.00;99.90;;;;;;5041256;28;20211;-73
2023/02/19 05:07:34;;;;;;;6.67;6.03;;;7.00;99.90;;;;;;5038525;28;20632;-73
2023/02/19 05:10:01;;;;;;;8.73;6.70;;;7.00;99.90;;;;;;5057609;28;20219;-73
2023/02/19 05:12:30;;;;;;;8.33;7.00;;;7.00;99.90;;;;;;5047404;28;20329;-73
2023/02/19 05:14:56;;;;;;;10.67;7.10;;;7.00;99.90;;;;;;5034742;28;20188;-73
2023/02/19 05:17:22;;;;;;;10.03;6.97;;;7.00;99.90;;;;;;5037929;28;20183;-73
2023/02/19 05:19:48;;;;;;;9.00;6.87;;;6.90;99.90;;;;;;5043223;28;20215;-73
2023/02/19 05:22:15;;;;;;;10.00;7.30;;;6.90;99.90;;;;;;5054620;28;20203;-73
2023/02/19 05:24:41;;;;;;;8.97;6.80;;;6.80;99.90;;;;;;5039567;28;20191;-73
2023/02/19 05:27:07;;;;;;;11.27;7.20;;;6.80;99.90;;;;;;5035091;28;20196;-73
2023/02/19 05:29:33;;;;;;;8.60;7.07;;;6.60;99.90;;;;;;5042352;28;20199;-73
2023/02/19 05:31:59;;;;;;;10.70;8.43;;;6.60;99.90;;;;;;5036646;28;20209;-73
2023/02/19 05:34:26;;;;;;;11.03;8.53;;;6.60;99.90;;;;;;5042493;28;20262;-73
2023/02/19 05:36:52;;;;;;;10.73;8.40;;;6.50;99.90;;;;;;5042783;28;20191;-73
2023/02/19 05:39:18;;;;;;;11.87;8.30;;;6.50;99.90;;;;;;5040165;28;20252;-73
2023/02/19 05:41:45;;;;;;;16.63;9.70;;;6.50;99.90;;;;;;5042724;28;20279;-73
2023/02/19 05:44:11;;;;;;;13.00;10.07;;;6.50;99.90;;;;;;5043808;28;20730;-73
2023/02/19 05:46:37;;;;;;;13.63;10.07;;;6.50;99.90;;;;;;5034271;28;20248;-73
2023/02/19 05:49:03;;;;;;;13.97;11.23;;;6.50;99.90;;;;;;5057475;28;20191;-73
2023/02/19 05:51:30;;;;;;;13.77;9.73;;;6.50;99.90;;;;;;5042306;28;20214;-73
2023/02/19 05:53:57;;;;;;;9.77;8.60;;;6.60;99.90;;;;;;5043746;28;20200;-73
2023/02/19 05:56:36;;;;;;;9.63;8.03;;;6.70;99.90;;;;;;5040977;28;20491;-73
2023/02/19 05:59:14;;;;;;;10.33;8.13;;;6.80;99.90;;;;;;5043145;28;20191;-73
2023/02/19 06:01:42;;;;;;;9.33;7.93;;;6.90;99.90;;;;;;5032041;28;20282;-73
2023/02/19 06:04:10;;;;;;;8.63;7.67;;;7.10;99.90;;;;;;5043447;28;20614;-73
2023/02/19 06:06:38;;;;;;;8.07;7.27;;;7.10;99.90;;;;;;5035813;28;20294;-73
2023/02/19 06:09:06;;;;;;;8.23;7.27;;;7.30;99.90;;;;;;5034888;28;20188;-73
2023/02/19 06:11:34;;;;;;;9.03;7.70;;;7.30;99.90;;;;;;5041968;28;20207;-73
2023/02/19 06:14:00;;;;;;;10.23;8.00;;;7.40;99.90;;;;;;5042478;28;20756;-73
2023/02/19 06:16:26;;;;;;;10.50;7.93;;;7.60;99.90;;;;;;5035356;28;20190;-73
2023/02/19 06:18:53;;;;;;;11.10;8.53;;;7.60;99.90;;;;;;5039944;28;20555;-73
2023/02/19 06:21:20;;;;;;;9.77;8.20;;;7.70;99.90;;;;;;5045901;28;20193;-73
2023/02/19 06:23:46;;;;;;;11.00;9.10;;;7.80;99.90;;;;;;5037082;28;20680;-73
2023/02/19 06:26:17;;;;;;;10.57;9.47;;;7.90;99.90;;;;;;5042203;28;20210;-73
2023/02/19 06:28:49;;;;;;;9.67;8.70;;;8.00;99.90;;;;;;5038458;28;21289;-73
2023/02/19 06:31:16;;;;;;;11.53;9.30;;;8.00;99.90;;;;;;5020778;28;20227;-73
2023/02/19 06:33:42;;;;;;;9.33;8.07;;;8.00;99.90;;;;;;5041389;28;20274;-73
2023/02/19 06:36:16;;;;;;;10.00;8.53;;;8.10;99.90;;;;;;5046170;28;20524;-73
2023/02/19 06:38:43;;;;;;;9.93;7.70;;;8.10;99.90;;;;;;5040984;28;20563;-73
2023/02/19 06:41:11;;;;;;;11.33;8.20;;;8.10;99.90;;;;;;5040090;28;20183;-73
2023/02/19 06:43:37;;;;;;;9.53;8.33;;;8.20;99.90;;;;;;5043775;28;20266;-73
2023/02/19 06:46:10;;;;;;;10.33;7.43;;;8.10;99.90;;;;;;5039374;28;20207;-73
2023/02/19 06:48:40;;;;;;;10.00;8.10;;;8.10;99.90;;;;;;5033317;28;20188;-73
2023/02/19 06:51:08;;;;;;;9.63;8.67;;;8.20;99.90;;;;;;5044899;28;20203;-73
2023/02/19 06:53:34;;;;;;;8.90;8.00;;;8.20;99.90;;;;;;5042033;28;20199;-73
2023/02/19 06:56:24;;;;;;;8.60;7.50;;;8.30;99.90;;;;;;5051040;28;20192;-72
2023/02/19 06:58:56;;;;;;;10.77;6.93;;;8.30;99.90;;;;;;5043183;28;20230;-73
2023/02/19 07:01:23;;;;;;;9.00;7.70;;;8.60;99.90;;;;;;5037201;28;20253;-73
2023/02/19 07:03:51;;;;;;;8.83;7.53;;;8.90;99.90;;;;;;5050257;28;20192;-73
2023/02/19 07:06:19;;;;;;;9.97;7.80;;;9.00;99.90;;;;;;5044094;28;20290;-73
2023/02/19 07:08:45;;;;;;;8.30;6.63;;;9.10;99.90;;;;;;5045310;28;20652;-73
2023/02/19 07:11:17;;;;;;;7.80;6.80;;;9.40;99.90;;;;;;5038964;28;20206;-73
2023/02/19 07:13:44;;;;;;;10.73;6.47;;;9.40;99.90;;;;;;5037435;28;20267;-73
2023/02/19 07:16:12;;;;;;;8.17;6.70;;;9.40;99.90;;;;;;5041539;28;20202;-73
2023/02/19 07:18:40;;;;;;;8.00;7.07;;;9.50;99.90;;;;;;5042863;28;20282;-73
2023/02/19 07:21:13;;;;;;;6.90;6.20;;;9.40;99.90;;;;;;5023676;28;20624;-73
2023/02/19 07:23:43;;;;;;;7.43;6.27;;;9.60;99.90;;;;;;5047138;28;20705;-73
2023/02/19 07:26:12;;;;;;;8.73;6.53;;;9.70;99.90;;;;;;5044955;28;20203;-73
2023/02/19 07:28:43;;;;;;;7.63;6.60;;;9.80;99.90;;;;;;5045622;28;20623;-73
2023/02/19 07:31:11;;;;;;;7.57;6.60;;;9.80;99.90;;;;;;5039797;28;20234;-73
2023/02/19 07:33:37;;;;;;;9.63;6.67;;;9.70;99.90;;;;;;5042498;28;20925;-73
2023/02/19 07:36:07;;;;;;;7.27;6.37;;;9.70;99.90;;;;;;5042685;28;20321;-73
2023/02/19 07:38:34;;;;;;;8.33;6.70;;;9.70;99.90;;;;;;5045961;28;20537;-73
2023/02/19 07:41:03;;;;;;;7.23;6.03;;;9.80;99.90;;;;;;5042604;28;20191;-73
2023/02/19 07:43:34;;;;;;;7.40;6.57;;;9.70;99.90;;;;;;5044512;28;20240;-73
2023/02/19 07:46:10;;;;;;;7.17;6.27;;;9.50;99.90;;;;;;5044800;28;20199;-73
2023/02/19 07:48:38;;;;;;;7.37;6.57;;;9.60;99.90;;;;;;5045490;28;20290;-73
2023/02/19 07:51:07;;;;;;;10.50;7.00;;;9.80;99.90;;;;;;5047326;28;20264;-73
2023/02/19 07:53:34;;;;;;;6.90;6.20;;;10.00;99.90;;;;;;5042505;28;20192;-73
2023/02/19 07:56:07;;;;;;;6.80;5.83;;;10.00;99.90;;;;;;5037866;28;20286;-73
2023/02/19 07:58:34;;;;;;;8.20;6.50;;;10.00;99.90;;;;;;5042484;28;20261;-73
2023/02/19 08:04:16;;;;;;;10.73;5.97;;;10.10;99.90;;;;;;5039411;28;20274;-73
2023/02/19 08:06:42;;;;;;;6.67;5.70;;;10.00;99.90;;;;;;5048376;28;20206;-73
2023/02/19 08:09:09;;;;;;;7.83;6.17;;;10.50;99.90;;;;;;5043798;28;20199;-73
2023/02/19 08:14:28;;;;;;;7.43;5.87;;;11.00;99.90;;;;;;5027538;28;20668;-73
2023/02/19 08:16:55;;;;;;;8.17;5.63;;;11.10;99.90;;;;;;5041511;28;20196;-73
2023/02/19 08:19:21;;;;;;;6.80;5.87;;;11.10;99.90;;;;;;5044057;28;20199;-73
2023/02/19 08:21:49;;;;;;;9.20;5.77;;;11.20;99.90;;;;;;5053018;28;20187;-74
2023/02/19 08:24:15;;;;;;;7.23;5.60;;;11.10;99.90;;;;;;5043354;28;20192;-73
2023/02/19 08:26:42;;;;;;;8.83;5.90;;;11.10;99.90;;;;;;5053638;28;20183;-73
2023/02/19 08:29:08;;;;;;;9.37;6.13;;;11.00;99.90;;;;;;5039999;28;20782;-73
2023/02/19 08:31:35;;;;;;;6.93;5.63;;;10.90;99.90;;;;;;5046894;28;20206;-73
2023/02/19 08:34:01;;;;;;;7.33;5.73;;;10.80;99.90;;;;;;5047909;28;20652;-73
2023/02/19 08:36:28;;;;;;;6.43;5.73;;;11.20;99.90;;;;;;5046721;28;20184;-73
2023/02/19 08:38:54;;;;;;;7.37;5.77;;;11.30;99.90;;;;;;5046997;28;20184;-73
2023/02/19 08:41:20;;;;;;;6.30;5.70;;;11.40;99.90;;;;;;5043996;28;20662;-74
2023/02/19 08:43:47;;;;;;;7.10;5.63;;;11.30;99.90;;;;;;5046942;28;20199;-73
2023/02/19 08:46:13;;;;;;;7.10;5.50;;;11.10;99.90;;;;;;5044731;28;20186;-73
2023/02/19 08:48:40;;;;;;;8.73;4.83;;;11.40;99.90;;;;;;5041795;28;20179;-73
2023/02/19 08:51:10;;;;;;;5.87;4.77;;;11.60;99.90;;;;;;5050843;28;20222;-73
2023/02/19 08:53:38;;;;;;;7.03;4.73;;;11.60;99.90;;;;;;5053377;28;20179;-73
2023/02/19 08:56:08;;;;;;;6.73;5.70;;;11.70;99.90;;;;;;5049140;28;20183;-73
2023/02/19 08:58:36;;;;;;;6.60;4.70;;;11.80;99.90;;;;;;5066478;28;20176;-73
2023/02/19 09:01:08;;;;;;;7.07;5.20;;;11.90;99.90;;;;;;5045724;28;20582;-73
2023/02/19 09:03:34;;;;;;;6.07;4.70;;;11.90;99.90;;;;;;5040513;28;20192;-73
2023/02/19 09:06:00;;;;;;;5.57;4.80;;;11.80;99.90;;;;;;5043122;28;20215;-73
2023/02/19 09:08:26;;;;;;;6.97;4.30;;;11.80;99.90;;;;;;5053679;28;20198;-73
2023/02/19 09:11:05;;;;;;;6.10;4.70;;;11.90;99.90;;;;;;5041007;28;20306;-73
2023/02/19 09:13:32;;;;;;;6.27;4.60;;;12.10;99.90;;;;;;5053833;28;20305;-73
2023/02/19 09:15:58;;;;;;;7.17;4.80;;;12.20;99.90;;;;;;5029879;28;20188;-73
2023/02/19 09:18:25;;;;;;;6.33;4.70;;;12.20;99.90;;;;;;5038678;28;20183;-73
2023/02/19 09:20:52;;;;;;;7.47;4.67;;;12.20;99.90;;;;;;5041019;28;20230;-74
2023/02/19 09:23:19;;;;;;;7.67;4.47;;;12.30;99.90;;;;;;5045723;28;20232;-73
2023/02/19 09:25:45;;;;;;;5.57;4.60;;;12.30;99.90;;;;;;5018260;28;20247;-74
2023/02/19 09:28:12;;;;;;;7.27;4.50;;;12.20;99.90;;;;;;5051948;28;20200;-74
2023/02/19 09:30:38;;;;;;;5.10;4.30;;;12.20;99.90;;;;;;5063407;28;20624;-73
2023/02/19 09:33:05;;;;;;;5.33;4.73;;;12.30;99.90;;;;;;5048924;28;20211;-73
2023/02/19 09:35:32;;;;;;;7.97;4.70;;;12.20;99.90;;;;;;5044367;28;20186;-74
2023/02/19 09:38:00;;;;;;;5.73;4.53;;;12.20;99.90;;;;;;5043861;28;20556;-74
2023/02/19 09:40:29;;;;;;;6.87;4.70;;;12.00;99.90;;;;;;5046437;28;20194;-73
2023/02/19 09:42:55;;;;;;;5.50;4.60;;;12.10;99.90;;;;;;5062545;28;20180;-74
2023/02/19 09:45:25;;;;;;;8.50;5.00;;;12.20;99.90;;;;;;5043082;28;20174;-74
2023/02/19 09:47:57;;;;;;;4.73;4.20;;;12.40;99.90;;;;;;5069645;28;20187;-74
2023/02/19 09:50:38;;;;;;;4.43;3.90;;;12.40;99.90;;;;;;5058069;28;20212;-74
2023/02/19 09:53:43;;;;;;;4.93;4.20;;;12.60;99.90;;;;;;5045932;28;20226;-74
2023/02/19 09:56:09;;;;;;;4.53;4.13;;;12.70;99.90;;;;;;5034278;28;20237;-74
2023/02/19 09:58:55;;;;;;;6.33;4.57;;;12.80;99.90;;;;;;5047124;28;20226;-74
2023/02/19 10:01:28;;;;;;;6.43;4.20;;;12.70;99.90;;;;;;5043934;28;20191;-74
2023/02/19 10:03:54;;;;;;;6.40;3.83;;;12.50;99.90;;;;;;5032609;28;20203;-74
2023/02/19 10:06:24;;;;;;;6.33;3.80;;;12.80;99.90;;;;;;5032417;28;20294;-74
2023/02/19 10:09:04;;;;;;;5.97;4.00;;;13.10;99.90;;;;;;5041295;28;20194;-74
2023/02/19 10:11:31;;;;;;;5.70;3.90;;;13.20;99.90;;;;;;5045142;28;21001;-74
2023/02/19 10:14:45;;;;;;;5.20;3.87;;;13.30;99.90;;;;;;5062879;28;20613;-74
2023/02/19 10:17:33;;;;;;;8.30;4.40;;;13.40;99.90;;;;;;5029114;28;20270;-74
2023/02/19 10:20:03;;;;;;;5.63;3.73;;;13.60;99.90;;;;;;5041501;28;20590;-74
2023/02/19 10:22:36;;;;;;;6.97;3.60;;;13.50;99.90;;;;;;5061828;28;20262;-74
2023/02/19 10:25:03;;;;;;;9.00;3.63;;;13.50;99.90;;;;;;5045338;28;20561;-74
2023/02/19 10:27:30;;;;;;;5.47;3.90;;;13.60;99.90;;;;;;5042786;28;20198;-74
2023/02/19 10:30:01;;;;;;;4.93;4.03;;;13.70;99.90;;;;;;5042558;28;20302;-74
2023/02/19 10:32:28;;;;;;;4.23;3.70;;;13.70;99.90;;;;;;5041918;28;20926;-74
2023/02/19 10:35:15;;;;;;;5.23;4.00;;;13.60;99.90;;;;;;5040874;28;20187;-74
2023/02/19 10:37:48;;;;;;;4.20;3.63;;;13.70;99.90;;;;;;5053307;28;20188;-74
2023/02/19 10:40:28;;;;;;;6.47;3.60;;;13.80;99.90;;;;;;5043130;28;20675;-74
2023/02/19 10:43:00;;;;;;;5.73;3.87;;;14.00;99.90;;;;;;5056291;28;20210;-74
2023/02/19 10:45:48;;;;;;;7.77;3.70;;;13.70;99.90;;;;;;5041818;28;20191;-74
2023/02/19 10:48:58;;;;;;;11.27;4.40;;;13.40;99.90;;;;;;5033076;28;20564;-73
2023/02/19 10:51:41;;;;;;;6.23;3.83;;;13.50;99.90;;;;;;5075224;28;20252;-74
2023/02/19 10:54:27;;;;;;;6.10;3.67;;;13.60;99.90;;;;;;5043454;28;20190;-74
2023/02/19 10:57:14;;;;;;;5.23;3.63;;;13.50;99.90;;;;;;5042219;28;20183;-74
2023/02/19 11:00:12;;;;;;;3.50;3.20;;;13.40;99.90;;;;;;5043501;28;20191;-73
2023/02/19 11:02:38;;;;;;;3.87;3.33;;;13.50;99.90;;;;;;5038824;28;20758;-73
2023/02/19 11:05:13;;;;;;;6.30;4.20;;;13.70;99.90;;;;;;5042689;28;20602;-74
2023/02/19 11:07:45;;;;;;;5.27;3.63;;;13.60;99.90;;;;;;5041499;28;20194;-74
2023/02/19 11:10:43;;;;;;;3.97;3.37;;;13.30;99.90;;;;;;5037669;28;20218;-74
2023/02/19 11:13:29;;;;;;;3.63;3.00;;;14.00;99.90;;;;;;5057820;28;20195;-74
2023/02/19 11:15:57;;;;;;;4.87;3.70;;;14.90;99.90;;;;;;5036560;28;20533;-73
2023/02/19 11:18:38;;;;;;;3.57;3.13;;;15.40;99.90;;;;;;5042643;28;20257;-74
2023/02/19 11:21:06;;;;;;;4.30;3.07;;;15.70;99.90;;;;;;5044588;28;20785;-74
2023/02/19 11:23:51;;;;;;;3.93;3.00;;;16.20;99.90;;;;;;5054464;28;20187;-74
2023/02/19 11:26:24;;;;;;;7.40;3.50;;;15.90;99.90;;;;;;5040735;28;20913;-74
2023/02/19 11:29:01;;;;;;;4.43;3.33;;;15.40;99.90;;;;;;5041666;28;20195;-73
2023/02/19 11:31:32;;;;;;;4.20;2.80;;;15.00;99.90;;;;;;5042746;28;20305;-73
2023/02/19 11:34:03;;;;;;;4.83;3.20;;;14.70;99.90;;;;;;5046636;28;20202;-74
2023/02/19 11:36:35;;;;;;;4.50;2.93;;;14.60;99.90;;;;;;5043759;28;20560;-73
2023/02/19 11:39:17;;;;;;;5.73;3.17;;;14.30;99.90;;;;;;5034011;28;20187;-74
2023/02/19 11:41:52;;;;;;;3.93;2.90;;;14.40;99.90;;;;;;5045293;28;20283;-74
2023/02/19 11:44:54;;;;;;;3.90;3.10;;;14.70;99.90;;;;;;5047979;28;20198;-74
2023/02/19 11:47:56;;;;;;;3.80;3.03;;;14.70;99.90;;;;;;5038496;28;20186;-74
2023/02/19 11:50:56;;;;;;;4.47;3.63;;;14.40;99.90;;;;;;5037302;28;21040;-74
2023/02/19 11:53:33;;;;;;;3.67;3.00;;;14.10;99.90;;;;;;5052084;28;20950;-74
2023/02/19 11:56:35;;;;;;;4.03;3.00;;;14.20;99.90;;;;;;5064713;28;20238;-74
2023/02/19 11:59:38;;;;;;;3.87;3.10;;;14.30;99.90;;;;;;5047289;28;20225;-74
2023/02/19 12:02:24;;;;;;;5.23;3.30;;;14.10;99.90;;;;;;5041824;28;20260;-74
2023/02/19 12:04:53;;;;;;;3.70;3.30;;;14.50;99.90;;;;;;5039771;28;20256;-74
2023/02/19 12:07:49;;;;;;;4.47;3.10;;;14.70;99.90;;;;;;5042070;28;20245;-74
2023/02/19 12:10:35;;;;;;;4.67;3.40;;;14.30;99.90;;;;;;5028901;28;20257;-74
2023/02/19 12:13:33;;;;;;;4.30;3.60;;;14.30;99.90;;;;;;5049069;28;20195;-74
2023/02/19 12:16:25;;;;;;;3.97;3.50;;;14.50;99.90;;;;;;5066393;28;20186;-74
2023/02/19 12:19:00;;;;;;;4.30;3.30;;;14.30;99.90;;;;;;5045299;28;20206;-74
2023/02/19 12:21:54;;;;;;;8.80;3.30;;;14.00;99.90;;;;;;5045500;28;20264;-74
2023/02/19 12:24:26;;;;;;;4.47;3.40;;;14.20;99.90;;;;;;5049181;28;20188;-74
2023/02/19 12:27:43;;;;;;;9.03;3.30;;;14.60;99.90;;;;;;5050983;28;20196;-74
2023/02/19 12:30:47;;;;;;;4.43;2.80;;;14.60;99.90;;;;;;5042719;28;20290;-74
2023/02/19 12:33:56;;;;;;;3.80;2.80;;;14.70;99.90;;;;;;5031356;28;20278;-74
2023/02/19 12:36:32;;;;;;;4.50;2.73;;;14.70;99.90;;;;;;5050710;28;20194;-74
2023/02/19 12:39:42;;;;;;;6.23;3.07;;;14.90;99.90;;;;;;5035699;28;20240;-74
2023/02/19 12:42:23;;;;;;;4.10;2.77;;;14.70;99.90;;;;;;5034699;28;20191;-74
2023/02/19 12:45:03;;;;;;;7.77;2.77;;;14.70;99.90;;;;;;5037419;28;20176;-74
2023/02/19 12:47:38;;;;;;;3.20;2.90;;;14.70;99.90;;;;;;5045697;28;20328;-74
2023/02/19 12:50:13;;;;;;;3.50;2.70;;;14.70;99.90;;;;;;5038060;28;20210;-74
2023/02/19 12:52:48;;;;;;;4.43;2.80;;;14.70;99.90;;;;;;5046412;28;21582;-74
2023/02/19 12:55:41;;;;;;;5.03;2.90;;;14.60;99.90;;;;;;5048122;28;20202;-74
2023/02/19 12:58:21;;;;;;;5.03;3.20;;;14.60;99.90;;;;;;5051876;28;20187;-74
2023/02/19 13:00:57;;;;;;;5.43;3.07;;;14.40;99.90;;;;;;5046348;28;20199;-74
2023/02/19 13:03:27;;;;;;;4.10;2.70;;;14.20;99.90;;;;;;5044195;28;20568;-74
2023/02/19 13:06:29;;;;;;;4.60;2.87;;;14.20;99.90;;;;;;5039928;28;20195;-74
2023/02/19 13:09:19;;;;;;;3.40;3.00;;;14.20;99.90;;;;;;5027343;28;20776;-74
2023/02/19 13:12:21;;;;;;;6.20;3.07;;;14.30;99.90;;;;;;5061939;28;20257;-74
2023/02/19 13:15:40;;;;;;;4.57;3.27;;;14.20;99.90;;;;;;5042095;28;20234;-74
2023/02/19 13:18:23;;;;;;;4.57;2.97;;;14.20;99.90;;;;;;5061485;28;20557;-74
2023/02/19 13:20:53;;;;;;;3.80;3.20;;;14.30;99.90;;;;;;5071699;28;20184;-74
2023/02/19 13:24:01;;;;;;;6.13;3.20;;;14.20;99.90;;;;;;5042731;28;20187;-74
2023/02/19 13:27:10;;;;;;;9.20;3.90;;;14.10;99.90;;;;;;5039377;28;20277;-74
2023/02/19 13:29:54;;;;;;;4.00;3.20;;;14.00;99.90;;;;;;5042375;28;20192;-74
2023/02/19 13:32:48;;;;;;;4.27;3.47;;;13.90;99.90;;;;;;5061292;28;20187;-74
2023/02/19 13:36:34;;;;;;;4.57;3.27;;;13.90;99.90;;;;;;5038085;28;20191;-74
2023/02/19 13:39:05;;;;;;;4.47;3.00;;;13.80;99.90;;;;;;5056987;28;20576;-74
2023/02/19 13:41:48;;;;;;;4.03;3.10;;;13.80;99.90;;;;;;5045703;28;20651;-74
2023/02/19 13:44:24;;;;;;;4.53;3.10;;;13.80;99.90;;;;;;5048526;28;20196;-74
2023/02/19 13:46:51;;;;;;;6.33;3.20;;;13.60;99.90;;;;;;5038748;28;20194;-74
2023/02/19 13:49:24;;;;;;;6.73;3.10;;;13.40;99.90;;;;;;5062427;28;20242;-74
2023/02/19 13:52:01;;;;;;;3.57;3.23;;;13.00;99.90;;;;;;5042429;28;20215;-74
2023/02/19 13:54:30;;;;;;;7.97;3.20;;;13.30;99.90;;;;;;5044659;28;20191;-74
2023/02/19 13:57:23;;;;;;;7.07;3.60;;;13.40;99.90;;;;;;5047947;28;20754;-74
2023/02/19 13:59:54;;;;;;;4.17;3.17;;;13.30;99.90;;;;;;5049070;28;20218;-74